createdAt,value
2023-03-21T00:00:44.804Z,100699.72
2023-03-21T00:03:12.921Z,100700.66
2023-03-21T00:05:42.382Z,100691.63
2023-03-21T00:08:10.582Z,100687.09
2023-03-21T00:10:43.641Z,100696.09
2023-03-21T00:13:13.287Z,100695.88
2023-03-21T00:16:04.692Z,100687.44
2023-03-21T00:18:42.503Z,100687.19
2023-03-21T00:24:08.566Z,100679.09
2023-03-21T00:26:38.236Z,100674.53
2023-03-21T00:29:06.977Z,100689.09
2023-03-21T00:31:36.466Z,100671.38
2023-03-21T00:34:04.505Z,100668.09
2023-03-21T00:36:33.260Z,100682.94
2023-03-21T00:39:01.964Z,100671.72
2023-03-21T00:41:45.106Z,100677.47
2023-03-21T00:44:15.859Z,100668.22
2023-03-21T00:47:00.492Z,100677.47
2023-03-21T00:49:34.303Z,100668.06
2023-03-21T00:52:15.296Z,100666.00
2023-03-21T00:54:46.234Z,100656.13
2023-03-21T00:57:14.384Z,100661.53
2023-03-21T00:59:42.453Z,100660.34
2023-03-21T01:02:15.012Z,100665.19
2023-03-21T01:04:44.155Z,100657.53
2023-03-21T01:07:12.407Z,100647.34
2023-03-21T01:09:40.471Z,100654.25
2023-03-21T01:12:08.393Z,100647.09
2023-03-21T01:14:36.411Z,100645.56
2023-03-21T01:17:04.852Z,100651.69
2023-03-21T01:19:48.659Z,100642.31
2023-03-21T01:22:19.473Z,100641.03
2023-03-21T01:24:55.444Z,100634.88
2023-03-21T01:27:28.413Z,100641.25
2023-03-21T01:29:56.448Z,100639.41
2023-03-21T01:32:24.167Z,100634.00
2023-03-21T01:34:55.985Z,100642.75
2023-03-21T01:37:26.319Z,100626.22
2023-03-21T01:39:54.062Z,100624.59
2023-03-21T01:42:21.813Z,100633.63
2023-03-21T01:44:58.525Z,100625.53
2023-03-21T01:47:26.404Z,100623.53
2023-03-21T01:49:56.931Z,100621.06
2023-03-21T01:52:36.525Z,100631.03
2023-03-21T01:55:08.340Z,100629.34
2023-03-21T01:57:45.356Z,100621.44
2023-03-21T02:00:21.750Z,100618.72
2023-03-21T02:02:58.275Z,100609.16
2023-03-21T02:05:37.600Z,100606.78
2023-03-21T02:08:06.114Z,100610.34
2023-03-21T02:10:33.943Z,100608.59
2023-03-21T02:13:09.397Z,100606.00
2023-03-21T02:15:38.591Z,100610.34
2023-03-21T02:18:11.536Z,100601.81
2023-03-21T02:20:57.490Z,100599.59
2023-03-21T02:23:39.650Z,100595.00
2023-03-21T02:26:41.996Z,100587.56
2023-03-21T02:29:24.308Z,100591.88
2023-03-21T02:31:57.152Z,100589.47
2023-03-21T02:34:46.775Z,100572.72
2023-03-21T02:37:28.891Z,100575.16
2023-03-21T02:40:11.889Z,100591.13
2023-03-21T02:42:59.382Z,100578.50
2023-03-21T02:45:30.425Z,100579.63
2023-03-21T02:48:01.388Z,100584.25
2023-03-21T02:50:33.976Z,100596.19
2023-03-21T02:53:05.059Z,100583.38
2023-03-21T02:55:34.413Z,100589.75
2023-03-21T02:58:12.829Z,100595.38
2023-03-21T03:00:42.954Z,100584.00
2023-03-21T03:03:16.044Z,100578.44
2023-03-21T03:05:50.968Z,100579.41
2023-03-21T03:08:41.254Z,100581.84
2023-03-21T03:11:24.789Z,100588.34
2023-03-21T03:14:15.857Z,100590.69
2023-03-21T03:16:55.923Z,100578.03
2023-03-21T03:19:31.179Z,100579.31
2023-03-21T03:22:03.434Z,100577.69
2023-03-21T03:24:35.606Z,100572.16
2023-03-21T03:27:08.246Z,100577.31
2023-03-21T03:29:39.440Z,100571.94
2023-03-21T03:32:30.799Z,100563.13
2023-03-21T03:35:00.696Z,100561.53
2023-03-21T03:37:31.796Z,100567.44
2023-03-21T03:40:07.452Z,100561.56
2023-03-21T03:42:37.375Z,100564.13
2023-03-21T03:45:06.199Z,100569.28
2023-03-21T03:47:42.042Z,100561.75
2023-03-21T03:50:23.828Z,100561.06
2023-03-21T03:52:58.767Z,100558.22
2023-03-21T03:55:34.775Z,100550.41
2023-03-21T03:58:04.731Z,100549.47
2023-03-21T04:00:34.891Z,100548.72
2023-03-21T04:03:03.767Z,100545.94
2023-03-21T04:05:33.289Z,100549.31
2023-03-21T04:08:01.177Z,100553.13
2023-03-21T04:10:30.679Z,100547.31
2023-03-21T04:12:58.933Z,100542.41
2023-03-21T04:15:26.972Z,100541.59
2023-03-21T04:17:54.709Z,100532.75
2023-03-21T04:20:35.632Z,100537.38
2023-03-21T04:23:05.237Z,100526.03
2023-03-21T04:25:42.272Z,100533.84
2023-03-21T04:28:15.824Z,100527.16
2023-03-21T04:30:58.606Z,100528.81
2023-03-21T04:33:28.575Z,100537.28
2023-03-21T04:35:56.797Z,100524.91
2023-03-21T04:38:26.447Z,100533.97
2023-03-21T04:40:56.159Z,100533.28
2023-03-21T04:43:24.496Z,100528.50
2023-03-21T04:45:52.380Z,100526.56
2023-03-21T04:48:20.856Z,100522.25
2023-03-21T04:50:48.952Z,100525.34
2023-03-21T04:53:16.977Z,100515.38
2023-03-21T04:55:45.395Z,100511.69
2023-03-21T04:58:14.653Z,100503.97
2023-03-21T05:00:42.446Z,100514.59
2023-03-21T05:03:10.755Z,100511.69
2023-03-21T05:05:39.642Z,100512.53
2023-03-21T05:08:07.770Z,100516.00
2023-03-21T05:10:35.820Z,100517.00
2023-03-21T05:13:03.535Z,100508.91
2023-03-21T05:15:32.848Z,100512.09
2023-03-21T05:18:11.548Z,100506.75
2023-03-21T05:20:42.739Z,100507.09
2023-03-21T05:23:11.965Z,100507.88
2023-03-21T05:25:40.430Z,100510.41
2023-03-21T05:28:08.954Z,100509.66
2023-03-21T05:30:38.083Z,100511.50
2023-03-21T05:33:06.109Z,100513.47
2023-03-21T05:35:34.185Z,100516.44
2023-03-21T05:38:03.386Z,100517.16
2023-03-21T05:40:31.481Z,100521.28
2023-03-21T05:42:59.514Z,100514.53
2023-03-21T05:45:27.522Z,100516.47
2023-03-21T05:47:56.814Z,100507.69
2023-03-21T05:50:25.057Z,100511.97
2023-03-21T05:52:52.818Z,100516.53
2023-03-21T05:55:21.388Z,100518.88
2023-03-21T05:57:49.407Z,100522.66
2023-03-21T06:00:21.888Z,100522.91
2023-03-21T06:02:50.251Z,100521.25
2023-03-21T06:05:19.646Z,100524.22
2023-03-21T06:07:47.834Z,100527.28
2023-03-21T06:10:15.585Z,100525.81
2023-03-21T06:12:43.568Z,100528.34
2023-03-21T06:15:13.267Z,100532.59
2023-03-21T06:17:41.083Z,100531.72
2023-03-21T06:20:10.596Z,100533.44
2023-03-21T06:22:39.789Z,100530.28
2023-03-21T06:25:10.130Z,100531.63
2023-03-21T06:27:38.309Z,100537.97
2023-03-21T06:30:07.227Z,100535.50
2023-03-21T06:32:34.985Z,100538.19
2023-03-21T06:35:03.108Z,100541.13
2023-03-21T06:37:30.884Z,100537.25
2023-03-21T06:39:59.984Z,100539.09
2023-03-21T06:42:27.686Z,100548.44
2023-03-21T06:44:55.674Z,100535.97
2023-03-21T06:47:23.552Z,100538.84
2023-03-21T06:49:51.574Z,100539.59
2023-03-21T06:52:19.280Z,100534.78
2023-03-21T06:54:47.280Z,100522.75
2023-03-21T06:57:18.051Z,100529.03
2023-03-21T06:59:46.302Z,100530.81
2023-03-21T07:02:14.185Z,100529.19
2023-03-21T07:04:42.381Z,100523.53
2023-03-21T07:07:10.387Z,100536.34
2023-03-21T07:09:38.121Z,100529.13
2023-03-21T07:12:05.936Z,100526.13
2023-03-21T07:14:35.115Z,100531.97
2023-03-21T07:17:02.802Z,100541.13
2023-03-21T07:19:52.259Z,100539.03
2023-03-21T07:22:21.899Z,100535.66
2023-03-21T07:25:02.456Z,100532.66
2023-03-21T07:27:32.574Z,100546.81
2023-03-21T07:30:01.833Z,100534.50
2023-03-21T07:32:30.102Z,100544.00
2023-03-21T07:34:59.625Z,100540.53
2023-03-21T07:37:29.146Z,100537.41
2023-03-21T07:39:56.886Z,100539.38
2023-03-21T07:42:24.560Z,100541.59
2023-03-21T07:44:54.947Z,100547.28
2023-03-21T07:47:24.065Z,100542.03
2023-03-21T07:49:51.877Z,100541.00
2023-03-21T07:52:19.719Z,100537.22
2023-03-21T07:54:47.464Z,100544.47
2023-03-21T07:57:15.254Z,100529.19
2023-03-21T07:59:42.953Z,100539.72
2023-03-21T08:02:11.459Z,100532.94
2023-03-21T08:04:40.726Z,100533.66
2023-03-21T08:07:08.537Z,100533.56
2023-03-21T08:09:36.977Z,100532.94
2023-03-21T08:12:05.240Z,100528.84
2023-03-21T08:14:33.252Z,100532.97
2023-03-21T08:17:01.948Z,100530.06
2023-03-21T08:19:29.681Z,100532.09
2023-03-21T08:21:59.835Z,100526.09
2023-03-21T08:24:28.200Z,100539.63
2023-03-21T08:26:56.155Z,100526.41
2023-03-21T08:29:25.143Z,100532.69
2023-03-21T08:31:52.892Z,100523.59
2023-03-21T08:34:23.093Z,100525.91
2023-03-21T08:36:50.967Z,100524.88
2023-03-21T08:39:21.885Z,100528.81
2023-03-21T08:41:49.671Z,100528.69
2023-03-21T08:44:18.065Z,100528.22
2023-03-21T08:46:45.887Z,100523.44
2023-03-21T08:49:13.588Z,100517.59
2023-03-21T08:51:41.385Z,100531.97
2023-03-21T08:54:09.127Z,100532.63
2023-03-21T08:56:38.200Z,100528.69
2023-03-21T08:59:05.863Z,100532.63
2023-03-21T09:01:33.695Z,100533.13
2023-03-21T09:04:01.371Z,100519.28
2023-03-21T09:06:30.049Z,100513.28
2023-03-21T09:08:57.980Z,100517.97
2023-03-21T09:11:26.075Z,100529.00
2023-03-21T09:13:55.155Z,100529.09
2023-03-21T09:16:22.891Z,100515.75
2023-03-21T09:18:55.633Z,100510.38
2023-03-21T09:21:25.042Z,100505.41
2023-03-21T09:23:56.475Z,100522.00
2023-03-21T09:26:25.719Z,100518.16
2023-03-21T09:29:06.008Z,100505.88
2023-03-21T09:31:54.611Z,100515.28
2023-03-21T09:34:22.346Z,100507.38
2023-03-21T09:36:51.813Z,100521.16
2023-03-21T09:39:19.551Z,100512.00
2023-03-21T09:41:57.146Z,100514.34
2023-03-21T09:44:41.910Z,100504.53
2023-03-21T09:47:29.421Z,100503.78
2023-03-21T09:50:13.601Z,100507.00
2023-03-21T09:52:47.765Z,100504.00
2023-03-21T09:55:22.366Z,100511.84
2023-03-21T09:57:53.109Z,100507.22
2023-03-21T10:00:27.479Z,100512.53
2023-03-21T10:03:06.867Z,100500.81
2023-03-21T10:05:35.824Z,100514.63
2023-03-21T10:08:07.454Z,100510.09
2023-03-21T10:10:38.664Z,100506.22
2023-03-21T10:13:08.604Z,100520.44
2023-03-21T10:15:38.341Z,100506.44
2023-03-21T10:18:09.768Z,100500.88
2023-03-21T10:20:39.045Z,100514.28
2023-03-21T10:23:08.831Z,100504.97
2023-03-21T10:25:38.419Z,100502.50
2023-03-21T10:28:08.303Z,100508.72
2023-03-21T10:30:40.549Z,100501.72
2023-03-21T10:33:15.138Z,100496.44
2023-03-21T10:35:45.584Z,100505.69
2023-03-21T10:38:17.043Z,100489.31
2023-03-21T10:40:46.580Z,100485.59
2023-03-21T10:43:20.589Z,100493.53
2023-03-21T10:45:50.269Z,100488.44
2023-03-21T10:48:21.703Z,100491.09
2023-03-21T10:50:51.158Z,100490.00
2023-03-21T10:53:22.707Z,100484.59
2023-03-21T10:55:53.274Z,100488.81
2023-03-21T10:58:27.362Z,100474.16
2023-03-21T11:00:59.248Z,100473.06
2023-03-21T11:03:32.403Z,100470.06
2023-03-21T11:06:08.851Z,100468.59
2023-03-21T11:08:41.010Z,100465.81
2023-03-21T11:11:14.700Z,100463.97
2023-03-21T11:13:59.306Z,100460.84
2023-03-21T11:16:35.356Z,100456.72
2023-03-21T11:19:04.764Z,100452.97
2023-03-21T11:21:37.502Z,100458.66
2023-03-21T11:24:07.643Z,100450.31
2023-03-21T11:26:37.879Z,100463.53
2023-03-21T11:29:22.253Z,100451.56
2023-03-21T11:31:52.269Z,100449.03
2023-03-21T11:34:28.911Z,100433.16
2023-03-21T11:37:01.329Z,100441.09
2023-03-21T11:39:34.721Z,100436.94
2023-03-21T11:42:02.459Z,100444.38
2023-03-21T11:44:33.070Z,100427.72
2023-03-21T11:47:02.439Z,100434.97
2023-03-21T11:49:33.030Z,100428.75
2023-03-21T11:52:18.525Z,100426.69
2023-03-21T11:55:04.850Z,100411.59
2023-03-21T11:57:38.776Z,100412.28
2023-03-21T12:00:17.751Z,100411.97
2023-03-21T12:05:54.812Z,100406.41
2023-03-21T12:08:32.724Z,100398.38
2023-03-21T12:11:06.267Z,100398.31
2023-03-21T12:13:47.294Z,100398.31
2023-03-21T12:16:29.948Z,100390.91
2023-03-21T12:19:04.833Z,100377.63
2023-03-21T12:21:38.212Z,100385.97
2023-03-21T12:24:08.872Z,100364.56
2023-03-21T12:26:41.669Z,100366.16
2023-03-21T12:29:24.356Z,100369.66
2023-03-21T12:32:02.491Z,100358.50
2023-03-21T12:34:44.858Z,100361.47
2023-03-21T12:37:19.787Z,100351.91
2023-03-21T12:39:49.253Z,100356.84
2023-03-21T12:42:52.090Z,100358.41
2023-03-21T12:45:22.256Z,100347.75
2023-03-21T12:47:53.129Z,100360.78
2023-03-21T12:50:23.555Z,100355.13
2023-03-21T12:52:55.739Z,100354.00
2023-03-21T12:55:24.970Z,100347.34
2023-03-21T12:57:58.029Z,100351.47
2023-03-21T13:00:28.916Z,100349.81
2023-03-21T13:02:59.590Z,100349.22
2023-03-21T13:05:31.738Z,100331.16
2023-03-21T13:08:08.660Z,100338.75
2023-03-21T13:10:37.271Z,100332.50
2023-03-21T13:13:14.437Z,100331.72
2023-03-21T13:15:56.749Z,100321.88
2023-03-21T13:18:32.523Z,100327.09
2023-03-21T13:21:03.748Z,100316.16
2023-03-21T13:24:00.881Z,100312.66
2023-03-21T13:26:40.085Z,100313.41
2023-03-21T13:29:15.602Z,100305.31
2023-03-21T13:31:51.991Z,100294.63
2023-03-21T13:34:22.537Z,100290.66
2023-03-21T13:36:52.153Z,100284.44
2023-03-21T13:39:26.675Z,100276.16
2023-03-21T13:41:54.821Z,100290.38
2023-03-21T13:44:27.139Z,100279.63
2023-03-21T13:46:57.361Z,100284.00
2023-03-21T13:49:31.056Z,100263.53
2023-03-21T13:52:00.628Z,100263.09
2023-03-21T13:54:51.016Z,100281.84
2023-03-21T13:57:24.308Z,100246.56
2023-03-21T14:00:23.606Z,100238.19
2023-03-21T14:02:55.316Z,100238.19
2023-03-21T14:05:24.080Z,100242.25
2023-03-21T14:07:59.433Z,100236.53
2023-03-21T14:10:35.918Z,100238.97
2023-03-21T14:13:04.707Z,100249.00
2023-03-21T14:15:41.051Z,100228.41
2023-03-21T14:18:28.050Z,100229.19
2023-03-21T14:21:05.066Z,100219.19
2023-03-21T14:23:57.211Z,100219.19
2023-03-21T14:26:28.024Z,100226.22
2023-03-21T14:28:55.802Z,100212.09
2023-03-21T14:31:23.855Z,100205.53
2023-03-21T14:33:54.228Z,100209.44
2023-03-21T14:36:25.681Z,100205.66
2023-03-21T14:39:00.660Z,100206.72
2023-03-21T14:41:31.127Z,100207.53
2023-03-21T14:44:13.418Z,100206.72
2023-03-21T14:46:41.875Z,100202.66
2023-03-21T14:49:14.274Z,100207.53
2023-03-21T14:51:42.665Z,100208.28
2023-03-21T14:54:14.307Z,100209.75
2023-03-21T14:59:21.280Z,100201.81
2023-03-21T15:01:50.963Z,100211.88
2023-03-21T15:04:19.070Z,100207.25
2023-03-21T15:06:51.688Z,100200.47
2023-03-21T15:09:23.399Z,100215.91
2023-03-21T15:11:52.698Z,100220.75
2023-03-21T15:14:26.223Z,100211.59
2023-03-21T15:16:55.023Z,100202.94
2023-03-21T15:19:28.714Z,100207.22
2023-03-21T15:21:59.341Z,100221.78
2023-03-21T15:24:28.965Z,100214.97
2023-03-21T15:27:00.826Z,100210.34
2023-03-21T15:29:30.337Z,100204.94
2023-03-21T15:31:59.216Z,100212.97
2023-03-21T15:34:29.003Z,100196.03
2023-03-21T15:36:59.059Z,100180.50
2023-03-21T15:39:29.450Z,100175.56
2023-03-21T15:41:59.575Z,100174.41
2023-03-21T15:44:30.011Z,100180.63
2023-03-21T15:46:58.442Z,100159.78
2023-03-21T15:52:14.475Z,100157.84
2023-03-21T15:54:44.689Z,100152.75
2023-03-21T15:57:22.688Z,100156.00
2023-03-21T15:59:55.961Z,100158.25
2023-03-21T16:02:26.288Z,100153.31
2023-03-21T16:04:58.729Z,100155.97
2023-03-21T16:07:27.097Z,100165.44
2023-03-21T16:10:00.166Z,100190.22
2023-03-21T16:12:28.244Z,100179.91
2023-03-21T16:14:57.365Z,100191.47
2023-03-21T16:17:29.154Z,100192.00
2023-03-21T16:19:57.134Z,100167.22
2023-03-21T16:22:24.854Z,100170.50
2023-03-21T16:24:52.514Z,100175.53
2023-03-21T16:27:20.752Z,100179.56
2023-03-21T16:29:48.498Z,100174.19
2023-03-21T16:32:20.568Z,100193.06
2023-03-21T16:34:48.774Z,100193.78
2023-03-21T16:37:16.870Z,100192.50
2023-03-21T16:40:12.690Z,100195.09
2023-03-21T16:42:40.403Z,100184.19
2023-03-21T16:45:09.129Z,100194.66
2023-03-21T16:47:38.224Z,100187.59
2023-03-21T16:50:21.561Z,100173.53
2023-03-21T16:52:49.422Z,100180.22
2023-03-21T16:55:17.243Z,100172.44
2023-03-21T16:57:46.291Z,100160.00
2023-03-21T17:00:16.755Z,100181.13
2023-03-21T17:02:46.096Z,100188.47
2023-03-21T17:05:14.061Z,100184.94
2023-03-21T17:07:44.150Z,100185.22
2023-03-21T17:10:17.619Z,100188.47
2023-03-21T17:12:45.673Z,100207.03
2023-03-21T17:15:14.613Z,100203.34
2023-03-21T17:17:42.821Z,100181.25
2023-03-21T17:20:21.443Z,100185.75
2023-03-21T17:22:49.821Z,100189.00
2023-03-21T17:25:18.878Z,100195.31
2023-03-21T17:27:47.949Z,100202.06
2023-03-21T17:30:22.811Z,100191.47
2023-03-21T17:32:51.633Z,100201.66
2023-03-21T17:35:21.524Z,100209.50
2023-03-21T17:37:51.132Z,100208.56
2023-03-21T17:40:22.340Z,100222.09
2023-03-21T17:42:50.851Z,100211.00
2023-03-21T17:45:19.480Z,100200.38
2023-03-21T17:47:47.433Z,100211.59
2023-03-21T17:50:17.701Z,100204.63
2023-03-21T17:52:49.558Z,100201.59
2023-03-21T17:55:21.122Z,100207.91
2023-03-21T17:57:49.591Z,100213.56
2023-03-21T18:00:21.130Z,100209.06
2023-03-21T18:02:48.955Z,100201.00
2023-03-21T18:05:17.231Z,100200.59
2023-03-21T18:08:08.896Z,100208.13
2023-03-21T18:10:34.496Z,100204.31
2023-03-21T18:13:02.263Z,100196.03
2023-03-21T18:15:30.826Z,100196.22
2023-03-21T18:17:58.971Z,100210.22
2023-03-21T18:20:49.942Z,100206.44
2023-03-21T18:23:18.782Z,100215.09
2023-03-21T18:25:55.593Z,100210.97
2023-03-21T18:28:23.386Z,100210.16
2023-03-21T18:33:40.895Z,100213.84
2023-03-21T18:36:09.543Z,100216.63
2023-03-21T18:38:39.073Z,100219.28
2023-03-21T18:41:08.447Z,100219.44
2023-03-21T18:46:24.696Z,100233.25
2023-03-21T18:48:52.999Z,100228.16
2023-03-21T18:51:21.848Z,100228.94
2023-03-21T18:53:51.470Z,100207.41
2023-03-21T18:57:06.041Z,100209.31
2023-03-21T18:59:07.505Z,100193.44
2023-03-21T19:01:35.865Z,100195.69
2023-03-21T19:04:20.806Z,100203.41
2023-03-21T19:06:51.297Z,100210.53
2023-03-21T19:09:29.089Z,100204.00
2023-03-21T19:11:59.253Z,100194.50
2023-03-21T19:14:26.996Z,100203.75
2023-03-21T19:17:47.168Z,100199.16
2023-03-21T19:19:44.818Z,100207.28
2023-03-21T19:22:13.122Z,100202.66
2023-03-21T19:24:42.990Z,100206.94
2023-03-21T19:27:11.411Z,100199.13
2023-03-21T19:29:40.578Z,100190.25
2023-03-21T19:32:08.897Z,100198.31
2023-03-21T19:34:36.794Z,100195.09
2023-03-21T19:37:05.227Z,100201.53
2023-03-21T19:39:33.496Z,100200.59
2023-03-21T19:42:15.916Z,100210.25
2023-03-21T19:44:45.158Z,100192.31
2023-03-21T19:47:13.198Z,100193.34
2023-03-21T19:52:29.243Z,100186.38
2023-03-21T19:54:56.952Z,100193.22
2023-03-21T19:57:26.316Z,100204.63
2023-03-21T19:59:54.925Z,100186.56
2023-03-21T20:02:35.535Z,100173.78
2023-03-21T20:05:04.076Z,100194.47
2023-03-21T20:07:32.925Z,100183.75
2023-03-21T20:10:00.799Z,100184.78
2023-03-21T20:12:30.639Z,100182.69
2023-03-21T20:15:10.414Z,100170.56
2023-03-21T20:18:04.008Z,100173.63
2023-03-21T20:20:31.926Z,100165.25
2023-03-21T20:23:08.484Z,100168.50
2023-03-21T20:25:40.922Z,100164.38
2023-03-21T20:28:16.500Z,100147.97
2023-03-21T20:30:49.342Z,100158.09
2023-03-21T20:33:17.777Z,100149.53
2023-03-21T20:36:32.892Z,100153.31
2023-03-21T20:38:34.234Z,100172.09
2023-03-21T20:41:03.131Z,100157.34
2023-03-21T20:46:29.751Z,100166.75
2023-03-21T20:48:58.364Z,100178.03
2023-03-21T20:54:16.978Z,100171.44
2023-03-21T20:57:08.036Z,100168.25
2023-03-21T20:59:37.503Z,100165.91
2023-03-21T21:02:05.350Z,100169.94
2023-03-21T21:05:15.563Z,100160.34
2023-03-21T21:07:22.447Z,100168.16
2023-03-21T21:09:50.987Z,100166.28
2023-03-21T21:12:19.771Z,100160.16
2023-03-21T21:14:49.170Z,100163.59
2023-03-21T21:20:16.276Z,100164.19
2023-03-21T21:22:52.322Z,100155.19
2023-03-21T21:25:26.150Z,100157.50
2023-03-21T21:27:53.888Z,100154.94
2023-03-21T21:30:23.159Z,100158.13
2023-03-21T21:32:51.050Z,100159.56
2023-03-21T21:35:20.546Z,100149.47
2023-03-21T21:37:48.461Z,100152.25
2023-03-21T21:40:20.221Z,100142.81
2023-03-21T21:43:03.511Z,100145.06
2023-03-21T21:45:32.734Z,100135.63
2023-03-21T21:48:00.706Z,100142.47
2023-03-21T21:50:28.440Z,100124.50
2023-03-21T21:52:56.208Z,100139.09
2023-03-21T21:55:23.913Z,100141.13
2023-03-21T21:57:53.109Z,100140.41
2023-03-21T22:00:21.487Z,100126.16
2023-03-21T22:02:50.614Z,100128.09
2023-03-21T22:05:19.067Z,100138.81
2023-03-21T22:07:47.074Z,100133.97
2023-03-21T22:10:15.434Z,100131.94
2023-03-21T22:12:43.119Z,100137.19
2023-03-21T22:15:12.096Z,100127.47
2023-03-21T22:17:40.569Z,100126.47
2023-03-21T22:20:12.094Z,100125.41
2023-03-21T22:22:40.111Z,100128.00
2023-03-21T22:25:10.545Z,100128.59
2023-03-21T22:27:38.494Z,100120.38
2023-03-21T22:30:07.967Z,100123.56
2023-03-21T22:32:36.817Z,100121.28
2023-03-21T22:35:05.242Z,100128.69
2023-03-21T22:37:35.837Z,100129.19
2023-03-21T22:40:05.592Z,100124.72
2023-03-21T22:42:33.324Z,100119.16
2023-03-21T22:45:01.548Z,100115.22
2023-03-21T22:47:29.625Z,100117.66
2023-03-21T22:49:57.346Z,100111.63
2023-03-21T22:52:46.961Z,100113.59
2023-03-21T22:55:16.109Z,100109.22
2023-03-21T22:57:43.871Z,100106.25
2023-03-21T23:00:14.402Z,100100.81
2023-03-21T23:02:42.349Z,100103.88
2023-03-21T23:05:10.672Z,100097.16
2023-03-21T23:07:38.456Z,100105.91
2023-03-21T23:10:07.163Z,100102.34
2023-03-21T23:12:37.525Z,100100.06
2023-03-21T23:15:06.101Z,100105.50
2023-03-21T23:17:35.535Z,100096.84
2023-03-21T23:20:06.031Z,100109.56
2023-03-21T23:22:34.167Z,100092.25
2023-03-21T23:25:02.482Z,100100.72
2023-03-21T23:27:30.267Z,100091.31
2023-03-21T23:29:59.339Z,100096.03
2023-03-21T23:32:27.191Z,100097.63
2023-03-21T23:34:55.524Z,100090.28
2023-03-21T23:37:24.874Z,100096.53
2023-03-21T23:39:55.239Z,100081.09
2023-03-21T23:42:23.082Z,100075.59
2023-03-21T23:44:50.871Z,100082.06
2023-03-21T23:47:20.769Z,100084.88
2023-03-21T23:49:56.092Z,100084.25
2023-03-21T23:52:24.026Z,100070.06
2023-03-21T23:54:51.959Z,100072.63
2023-03-21T23:57:19.855Z,100078.97
2023-03-21T23:59:47.720Z,100067.88
